LGSKLGSM

Guest
Details From LGSK - Skiathos Alexandros Papadiamantis
To LGSM - SAMOS
Flight Number -
Tags generated
Created
Modified
Stats Distance 184 nm / 342 km
Max Altitude 21,500 ft / 6,553 m
Waypoints 3
Social Downloads 2
Likes 0
Share VATSIM

Download

Looking for another format? Having issues loading an existing format? Contact us
Advertisement - Login to hide

Notes

Basic altitude profile: - Ascent Rate: 2500ft/min - Ascent Speed: 250kts - Cruise Altitude: 35000ft - Cruise Speed: 420kts - Descent Rate: 1500ft/min - Descent Speed: 250kts Options: - Use NATs: yes - Use PACOTS: yes - Use low airways: yes - Use high airways: yes

Route

LGSK OLIDA LGSM

ID Type Via Altitude Latitude Longitude Leg Dist Tot Dist Heading (true) Name
O LGSK APT - 0 ft / 0 m 39.17710˚ 23.50368˚ - 0 nm - Skiathos Alexandros Papadiamantis
OLIDA FIX - 21,500 ft / 6,553 m 38.41833˚ 24.89111˚ 79 nm 79 nm 125° / 125° -
O LGSM APT - 0 ft / 0 m 37.68901˚ 26.91112˚ 105 nm 184 nm 114° / 115° SAMOS

Altitude Profile

Advertisement - Login to hide

Weather


0- 5 10 15 20 25 30 35+ Temperature / ° C

Clouds and Precipitation
Forecast for 2017-12-17 18:00 UTC. Updated 33 minutes ago

Ground ~20,000 ft ~40,000 ft Winds

LGSK

Details ICAO LGSK (JSI)
Name Skiathos Alexandros Papadiamantis
Region Greece
Timezone Europe/Athens (UTC+2.0)
Stats Elevation 54 ft / 16 m (AMSL)
Location 39.177100° 23.503677°
Runways 1
Magnetic Variation 4.554° E

METAR

LGSK 171650Z 00000KT 9999 FEW012 10/09 Q1010

Decode

TAF

Not found

Departure Runways

ID Width Length Bearing (true) Bearing (mag) Surface Threshold Offset Overrun Length
02 98 ft / 30 m 5,535 ft / 1,687 m 18.96° 14.41° Asphalt 190 ft / 58 m 0 ft / 0 m
20 98 ft / 30 m 5,535 ft / 1,687 m 198.97° 194.42° Asphalt 0 ft / 0 m 242 ft / 74 m

LGSM

Details ICAO LGSM (SMI)
Name SAMOS
Region Greece
Timezone Europe/Athens (UTC+2.0)
Stats Elevation 19 ft / 6 m (AMSL)
Location 37.689012° 26.911123°
Runways 1
Magnetic Variation 4.802° E

METAR

LGSM 171720Z 21015KT 9999 SCT018 BKN045 17/15 Q1013

Decode

TAF

Not found

Destination Runways

ID Width Length Bearing (true) Bearing (mag) Surface Threshold Offset Overrun Length
09 148 ft / 45 m 6,690 ft / 2,039 m 94.02° 89.22° Asphalt 230 ft / 70 m 0 ft / 0 m
27 148 ft / 45 m 6,690 ft / 2,039 m 274.03° 269.23° Asphalt 0 ft / 0 m 0 ft / 0 m

Popular Alternatives